Time;durP1;ratioP1;P1;durP2;ratioP2;P2;SDS_P1;SDS_P2;PMS_P1;PMS_P2;Temp;Humidity;BMP_temperature;BMP_pressure;BME280_temperature;BME280_humidity;BME280_pressure;Samples;Min_cycle;Max_cycle;Signal;HPM_P1;HPM_P2
2020/12/20 00:01:43;;;;;;;;;;;;;;;20.17;40.20;101514.13;5036466;28;980;-60
2020/12/20 00:04:09;;;;;;;;;;;;;;;20.17;40.29;101514.13;5036189;28;1058;-62
2020/12/20 00:06:39;;;;;;;;;;;;;;;20.18;40.23;101515.75;5017616;28;2022;-60
2020/12/20 00:09:13;;;;;;;;;;;;;;;20.18;40.09;101520.56;5016863;28;841;-62
2020/12/20 00:11:44;;;;;;;;;;;;;;;20.17;40.17;101528.16;5016528;28;988;-62
2020/12/20 00:14:34;;;;;;;;;;;;;;;20.18;40.05;101528.97;5017027;28;2050;-63
2020/12/20 00:17:08;;;;;;;;;;;;;;;20.17;40.16;101521.75;5024314;28;1960;-61
2020/12/20 00:19:34;;;;;;;;;;;;;;;20.18;40.24;101531.78;5036275;28;976;-61
2020/12/20 00:22:02;;;;;;;;;;;;;;;20.17;40.07;101532.97;5036371;28;988;-61
2020/12/20 00:24:28;;;;;;;;;;;;;;;20.18;40.26;101528.97;5019453;28;2398;-61
2020/12/20 00:26:55;;;;;;;;;;;;;;;20.17;40.05;101536.56;5016209;28;1345;-62
2020/12/20 00:29:22;;;;;;;;;;;;;;;20.17;40.28;101527.34;5016121;28;905;-60
2020/12/20 00:31:48;;;;;;;;;;;;;;;20.17;40.13;101521.75;5033339;28;2023;-62
2020/12/20 00:34:13;;;;;;;;;;;;;;;20.16;40.19;101522.94;5036019;28;797;-61
2020/12/20 00:36:42;;;;;;;;;;;;;;;20.16;40.00;101518.16;5035448;28;1906;-62
2020/12/20 00:39:08;;;;;;;;;;;;;;;20.15;40.00;101530.53;5035899;28;893;-59
2020/12/20 00:41:33;;;;;;;;;;;;;;;20.16;40.06;101529.38;5035499;28;936;-62
2020/12/20 00:43:58;;;;;;;;;;;;;;;20.16;40.00;101528.53;5035616;28;833;-61
2020/12/20 00:46:24;;;;;;;;;;;;;;;20.15;40.01;101526.94;5030872;28;2514;-59
2020/12/20 00:48:49;;;;;;;;;;;;;;;20.16;40.05;101531.34;5035348;28;810;-59
2020/12/20 00:51:14;;;;;;;;;;;;;;;20.16;40.14;101531.34;5035995;28;913;-60
2020/12/20 00:53:40;;;;;;;;;;;;;;;20.16;40.09;101531.34;5035256;28;901;-59
2020/12/20 00:56:05;;;;;;;;;;;;;;;20.15;40.05;101530.53;5035175;28;1890;-60
2020/12/20 00:58:32;;;;;;;;;;;;;;;20.15;40.02;101530.53;5034238;28;1908;-57
2020/12/20 01:00:59;;;;;;;;;;;;;;;20.15;40.03;101521.34;5027922;28;2130;-59
2020/12/20 01:03:24;;;;;;;;;;;;;;;20.14;40.04;101523.34;5035121;28;872;-58
2020/12/20 01:05:49;;;;;;;;;;;;;;;20.15;39.92;101526.94;5036407;28;1278;-60
2020/12/20 01:08:15;;;;;;;;;;;;;;;20.14;40.22;101526.16;5035741;28;847;-61
2020/12/20 01:10:40;;;;;;;;;;;;;;;20.15;40.09;101538.16;5035520;28;839;-62
2020/12/20 01:13:05;;;;;;;;;;;;;;;20.15;40.23;101541.75;5033449;28;2051;-61
2020/12/20 01:15:31;;;;;;;;;;;;;;;20.14;40.00;101540.16;5014975;28;1894;-61
2020/12/20 01:17:56;;;;;;;;;;;;;;;20.14;40.10;101537.38;5015556;28;1241;-61
2020/12/20 01:20:23;;;;;;;;;;;;;;;20.15;39.96;101529.75;5015387;28;915;-61
2020/12/20 01:22:49;;;;;;;;;;;;;;;20.14;40.16;101528.97;5015899;28;839;-61
2020/12/20 01:25:14;;;;;;;;;;;;;;;20.14;40.04;101526.16;5015077;28;1043;-62
2020/12/20 01:27:40;;;;;;;;;;;;;;;20.13;39.91;101527.34;5015241;28;1822;-61
2020/12/20 01:30:06;;;;;;;;;;;;;;;20.13;40.01;101538.56;5015460;28;874;-62
2020/12/20 01:32:32;;;;;;;;;;;;;;;20.14;40.18;101542.16;5015717;28;921;-62
2020/12/20 01:34:57;;;;;;;;;;;;;;;20.12;40.01;101536.94;5015068;28;1890;-61
2020/12/20 01:37:22;;;;;;;;;;;;;;;20.13;40.08;101548.97;5014850;28;1388;-61
2020/12/20 01:39:47;;;;;;;;;;;;;;;20.13;40.07;101548.97;5015004;28;960;-61
2020/12/20 01:42:13;;;;;;;;;;;;;;;20.13;39.97;101548.97;5017497;28;2139;-61
2020/12/20 01:44:39;;;;;;;;;;;;;;;20.12;39.94;101550.94;5014931;28;936;-60
2020/12/20 01:47:05;;;;;;;;;;;;;;;20.12;39.91;101542.53;5015298;28;1259;-59
2020/12/20 01:49:30;;;;;;;;;;;;;;;20.13;39.88;101548.97;5015140;28;984;-61
2020/12/20 01:51:56;;;;;;;;;;;;;;;20.12;39.92;101556.56;5015327;28;944;-62
2020/12/20 01:54:21;;;;;;;;;;;;;;;20.12;40.04;101544.53;5030768;28;1529;-60
2020/12/20 01:56:47;;;;;;;;;;;;;;;20.12;39.99;101538.94;5031616;28;2055;-59
2020/12/20 01:59:13;;;;;;;;;;;;;;;20.11;40.08;101540.94;5034953;28;1118;-60
2020/12/20 02:01:38;;;;;;;;;;;;;;;20.12;39.97;101547.34;5034494;28;868;-60
2020/12/20 02:04:03;;;;;;;;;;;;;;;20.11;39.83;101535.34;5035199;28;851;-59
2020/12/20 02:06:29;;;;;;;;;;;;;;;20.10;39.87;101528.91;5034820;28;1286;-58
2020/12/20 02:08:54;;;;;;;;;;;;;;;20.10;39.97;101525.31;5032807;28;2081;-58
2020/12/20 02:11:19;;;;;;;;;;;;;;;20.10;39.93;101525.31;5014913;28;980;-59
2020/12/20 02:13:48;;;;;;;;;;;;;;;20.10;39.93;101534.53;5018330;28;1748;-61
2020/12/20 02:16:14;;;;;;;;;;;;;;;20.10;39.96;101520.50;5018603;28;1953;-62
2020/12/20 02:18:40;;;;;;;;;;;;;;;20.10;40.00;101525.31;5035666;28;1786;-62
2020/12/20 02:21:15;;;;;;;;;;;;;;;20.10;40.09;101523.31;5038792;28;904;-62
2020/12/20 02:23:47;;;;;;;;;;;;;;;20.09;40.09;101512.50;5038089;28;813;-60
2020/12/20 02:26:14;;;;;;;;;;;;;;;20.09;39.94;101506.91;5037966;28;1294;-62
2020/12/20 02:28:39;;;;;;;;;;;;;;;20.09;39.91;101502.09;5038553;28;901;-61
2020/12/20 02:31:04;;;;;;;;;;;;;;;20.09;39.96;101501.31;5037666;28;2036;-62
2020/12/20 02:33:31;;;;;;;;;;;;;;;20.09;39.99;101506.91;5037856;28;1054;-62
2020/12/20 02:35:57;;;;;;;;;;;;;;;20.09;40.12;101502.09;5037829;28;1893;-61
2020/12/20 02:38:22;;;;;;;;;;;;;;;20.09;39.98;101498.50;5038047;28;864;-62
2020/12/20 02:40:47;;;;;;;;;;;;;;;20.08;40.11;101506.09;5038147;28;873;-60
2020/12/20 02:43:13;;;;;;;;;;;;;;;20.08;40.00;101502.47;5038075;28;984;-61
2020/12/20 02:45:38;;;;;;;;;;;;;;;20.08;40.02;101502.47;5027433;28;2023;-62
2020/12/20 02:48:03;;;;;;;;;;;;;;;20.07;39.84;101498.88;5023057;28;2078;-61
2020/12/20 02:50:29;;;;;;;;;;;;;;;20.07;39.91;101496.09;5038626;28;797;-57
2020/12/20 02:52:54;;;;;;;;;;;;;;;20.07;40.04;101500.88;5037654;28;803;-60
2020/12/20 02:55:19;;;;;;;;;;;;;;;20.07;39.99;101500.88;5037246;28;1951;-60
2020/12/20 02:57:45;;;;;;;;;;;;;;;20.08;40.06;101502.47;5037808;28;1270;-61
2020/12/20 03:00:10;;;;;;;;;;;;;;;20.07;40.04;101506.47;5023145;28;2025;-61
2020/12/20 03:02:35;;;;;;;;;;;;;;;20.07;40.02;101510.09;5017761;28;977;-61
2020/12/20 03:05:01;;;;;;;;;;;;;;;20.06;40.06;101519.69;5017357;28;928;-60
2020/12/20 03:07:26;;;;;;;;;;;;;;;20.06;40.04;101519.69;5017784;28;1354;-58
2020/12/20 03:09:52;;;;;;;;;;;;;;;20.06;39.98;101516.88;5020189;28;2081;-58
2020/12/20 03:12:18;;;;;;;;;;;;;;;20.06;40.00;101502.09;5021180;28;2067;-58
2020/12/20 03:14:45;;;;;;;;;;;;;;;20.06;39.99;101511.28;5037398;28;941;-58
2020/12/20 03:17:10;;;;;;;;;;;;;;;20.06;39.99;101500.06;5036983;28;1898;-58
2020/12/20 03:19:35;;;;;;;;;;;;;;;20.05;40.03;101498.47;5039111;28;1035;-61
2020/12/20 03:22:00;;;;;;;;;;;;;;;20.06;39.90;101502.09;5036788;28;2052;-62
2020/12/20 03:24:26;;;;;;;;;;;;;;;20.05;40.05;101509.69;5016680;28;1938;-62
2020/12/20 03:26:51;;;;;;;;;;;;;;;20.05;39.89;101509.69;5017170;28;1345;-62
2020/12/20 03:29:16;;;;;;;;;;;;;;;20.04;39.98;101508.06;5017268;28;1052;-61
2020/12/20 03:31:41;;;;;;;;;;;;;;;20.05;40.01;101520.91;5017705;28;992;-61
2020/12/20 03:34:07;;;;;;;;;;;;;;;20.05;39.95;101520.91;5016998;28;991;-61
2020/12/20 03:36:32;;;;;;;;;;;;;;;20.05;40.00;101526.50;5016969;28;1949;-62
2020/12/20 03:38:57;;;;;;;;;;;;;;;20.04;39.91;101524.91;5033975;28;2113;-62
2020/12/20 03:41:23;;;;;;;;;;;;;;;20.05;39.87;101520.91;5037136;28;790;-62
2020/12/20 03:43:48;;;;;;;;;;;;;;;20.04;39.79;101522.09;5037063;28;975;-61
2020/12/20 03:46:13;;;;;;;;;;;;;;;20.04;40.01;101515.69;5036738;28;1279;-61
2020/12/20 03:48:38;;;;;;;;;;;;;;;20.03;39.77;101517.66;5037231;28;1175;-61
2020/12/20 03:51:04;;;;;;;;;;;;;;;20.03;40.04;101520.47;5027156;28;2257;-60
2020/12/20 03:53:29;;;;;;;;;;;;;;;20.02;40.06;101513.28;5016831;28;987;-61
2020/12/20 03:55:54;;;;;;;;;;;;;;;20.01;40.00;101522.88;5016712;28;1898;-59
2020/12/20 03:58:20;;;;;;;;;;;;;;;20.04;39.78;101515.69;5016927;28;961;-60
2020/12/20 04:00:45;;;;;;;;;;;;;;;20.02;39.78;101510.47;5016568;28;896;-61
2020/12/20 04:03:10;;;;;;;;;;;;;;;20.03;39.92;101508.47;5017554;28;866;-61
2020/12/20 04:05:35;;;;;;;;;;;;;;;20.01;40.02;101522.88;5030712;28;2050;-59
2020/12/20 04:08:01;;;;;;;;;;;;;;;20.02;40.03;101520.88;5036519;28;1370;-61
2020/12/20 04:10:27;;;;;;;;;;;;;;;20.02;40.02;101532.91;5036336;28;996;-61
2020/12/20 04:12:52;;;;;;;;;;;;;;;20.01;39.89;101530.47;5036237;28;911;-60
2020/12/20 04:15:18;;;;;;;;;;;;;;;20.01;39.88;101528.47;5035774;28;1898;-58
2020/12/20 04:17:43;;;;;;;;;;;;;;;20.01;39.84;101527.69;5034920;28;2470;-61
2020/12/20 04:20:08;;;;;;;;;;;;;;;20.00;40.01;101535.28;5036639;28;896;-58
2020/12/20 04:22:33;;;;;;;;;;;;;;;20.00;39.85;101529.69;5035879;28;885;-58
2020/12/20 04:24:59;;;;;;;;;;;;;;;20.01;39.96;101530.47;5035835;28;844;-59
2020/12/20 04:27:24;;;;;;;;;;;;;;;20.01;40.23;101531.28;5036590;28;1258;-61
2020/12/20 04:29:49;;;;;;;;;;;;;;;19.99;39.89;101530.88;5036427;28;909;-62
2020/12/20 04:32:15;;;;;;;;;;;;;;;20.01;39.92;101530.47;5024566;28;1969;-61
2020/12/20 04:34:40;;;;;;;;;;;;;;;20.00;39.94;101532.50;5015745;28;881;-62
2020/12/20 04:37:05;;;;;;;;;;;;;;;19.98;39.88;101523.66;5015554;28;1966;-62
2020/12/20 04:39:31;;;;;;;;;;;;;;;20.00;40.06;101524.09;5016011;28;859;-62
2020/12/20 04:41:56;;;;;;;;;;;;;;;20.00;39.97;101517.66;5015814;28;857;-62
2020/12/20 04:44:21;;;;;;;;;;;;;;;19.99;39.86;101516.84;5015899;28;2336;-63
2020/12/20 04:46:47;;;;;;;;;;;;;;;19.99;39.99;101519.66;5035736;28;1381;-60
2020/12/20 04:49:14;;;;;;;;;;;;;;;19.98;39.87;101518.03;5035770;28;918;-62
2020/12/20 04:51:40;;;;;;;;;;;;;;;19.99;39.83;101521.66;5035442;28;1052;-61
2020/12/20 04:54:08;;;;;;;;;;;;;;;19.99;39.77;101521.66;5035292;28;882;-61
2020/12/20 04:56:37;;;;;;;;;;;;;;;19.98;39.88;101517.25;5034868;28;1957;-61
2020/12/20 04:59:05;;;;;;;;;;;;;;;19.98;39.86;101522.84;5025881;28;2113;-61
2020/12/20 05:01:31;;;;;;;;;;;;;;;19.98;39.88;101523.66;5016253;28;830;-61
2020/12/20 05:03:57;;;;;;;;;;;;;;;19.98;39.98;101531.25;5016079;28;980;-62
2020/12/20 05:06:24;;;;;;;;;;;;;;;19.97;39.79;101527.66;5015694;28;1259;-61
2020/12/20 05:08:49;;;;;;;;;;;;;;;19.97;39.88;101527.66;5015634;28;901;-59
2020/12/20 05:11:38;;;;;;;;;;;;;;;19.97;39.95;101533.28;5015739;28;833;-59
2020/12/20 05:14:06;;;;;;;;;;;;;;;19.96;39.76;101522.44;4995906;28;885;-59
2020/12/20 05:16:35;;;;;;;;;;;;;;;19.97;39.81;101518.44;4995621;28;1906;-60
2020/12/20 05:19:02;;;;;;;;;;;;;;;19.96;39.94;101528.06;4996169;28;901;-62
2020/12/20 05:21:28;;;;;;;;;;;;;;;19.96;39.90;101525.25;4996067;28;869;-58
2020/12/20 05:23:54;;;;;;;;;;;;;;;19.95;39.88;101527.25;4996081;28;1050;-61
2020/12/20 05:26:30;;;;;;;;;;;;;;;19.96;39.83;101531.66;5011852;28;1862;-59
2020/12/20 05:29:09;;;;;;;;;;;;;;;19.96;39.92;101539.25;5035558;28;959;-61
2020/12/20 05:31:35;;;;;;;;;;;;;;;19.95;39.89;101544.06;5035026;28;849;-59
2020/12/20 05:34:01;;;;;;;;;;;;;;;19.95;39.84;101546.88;5035978;28;1028;-62
2020/12/20 05:36:27;;;;;;;;;;;;;;;19.95;39.90;101544.06;5034966;28;1907;-62
2020/12/20 05:38:52;;;;;;;;;;;;;;;19.94;39.98;101539.66;5033804;28;1942;-61
2020/12/20 05:41:30;;;;;;;;;;;;;;;19.94;39.93;101538.84;5034919;28;790;-63
2020/12/20 05:44:13;;;;;;;;;;;;;;;19.94;39.85;101538.84;5035157;28;904;-61
2020/12/20 05:46:41;;;;;;;;;;;;;;;19.94;39.89;101536.84;5034938;28;1369;-62
2020/12/20 05:49:27;;;;;;;;;;;;;;;19.94;39.81;101539.66;5037141;28;794;-61
2020/12/20 05:52:06;;;;;;;;;;;;;;;19.93;39.85;101532.44;5039050;28;997;-61
2020/12/20 05:54:32;;;;;;;;;;;;;;;19.94;39.96;101538.84;5029744;28;1997;-62
2020/12/20 05:57:24;;;;;;;;;;;;;;;19.92;39.86;101537.25;5038822;28;1894;-62
2020/12/20 05:59:53;;;;;;;;;;;;;;;19.93;39.80;101538.03;5037093;28;1018;-61
2020/12/20 06:02:21;;;;;;;;;;;;;;;19.92;39.88;101545.66;5039138;28;892;-62
2020/12/20 06:04:47;;;;;;;;;;;;;;;19.91;39.86;101538.41;5037968;28;2005;-61
2020/12/20 06:07:14;;;;;;;;;;;;;;;19.92;39.82;101536.44;5019762;28;1984;-62
2020/12/20 06:09:57;;;;;;;;;;;;;;;19.92;39.82;101533.63;5038938;28;1454;-61
2020/12/20 06:12:25;;;;;;;;;;;;;;;19.92;40.02;101542.03;5038944;28;991;-62
2020/12/20 06:14:51;;;;;;;;;;;;;;;19.91;39.96;101546.81;5038104;28;917;-59
2020/12/20 06:17:24;;;;;;;;;;;;;;;19.92;39.98;101547.66;5038844;28;1898;-61
2020/12/20 06:19:57;;;;;;;;;;;;;;;19.91;39.97;101560.03;5029906;28;2281;-59
2020/12/20 06:22:23;;;;;;;;;;;;;;;19.91;39.92;101557.25;5018672;28;877;-61
2020/12/20 06:24:51;;;;;;;;;;;;;;;19.90;39.92;101556.44;5018185;28;877;-61
2020/12/20 06:27:20;;;;;;;;;;;;;;;19.90;39.85;101562.06;5019158;28;2440;-60
2020/12/20 06:29:54;;;;;;;;;;;;;;;19.90;39.84;101567.66;5038413;28;876;-60
2020/12/20 06:32:27;;;;;;;;;;;;;;;19.90;39.97;101566.84;5038292;28;984;-58
2020/12/20 06:34:54;;;;;;;;;;;;;;;19.90;39.97;101564.84;5020704;28;2439;-59
2020/12/20 06:37:21;;;;;;;;;;;;;;;19.90;39.84;101562.06;5018526;28;1890;-59
2020/12/20 06:39:47;;;;;;;;;;;;;;;19.89;39.93;101563.22;5018973;28;860;-62
2020/12/20 06:42:12;;;;;;;;;;;;;;;19.89;39.88;101556.84;5018665;28;952;-62
2020/12/20 06:44:38;;;;;;;;;;;;;;;19.90;39.85;101555.66;5017865;28;818;-63
2020/12/20 06:47:03;;;;;;;;;;;;;;;19.89;39.88;101557.63;5020598;28;2232;-60
2020/12/20 06:49:36;;;;;;;;;;;;;;;19.89;39.93;101556.84;5037692;28;961;-60
2020/12/20 06:52:16;;;;;;;;;;;;;;;19.89;39.81;101556.84;5037837;28;845;-61
2020/12/20 06:54:42;;;;;;;;;;;;;;;19.88;39.96;101553.25;5037405;28;1013;-60
2020/12/20 06:57:10;;;;;;;;;;;;;;;19.88;39.86;101558.84;5030617;28;2385;-61
2020/12/20 06:59:45;;;;;;;;;;;;;;;19.88;39.75;101558.00;5037562;28;953;-61
2020/12/20 07:02:47;;;;;;;;;;;;;;;19.88;40.08;101560.81;5038012;28;825;-60
2020/12/20 07:05:35;;;;;;;;;;;;;;;19.87;40.03;101562.03;5037613;28;793;-61
2020/12/20 07:08:09;;;;;;;;;;;;;;;19.87;39.91;101568.44;5038011;28;1306;-61
2020/12/20 07:10:47;;;;;;;;;;;;;;;19.88;39.80;101572.03;5030370;28;1832;-61
2020/12/20 07:13:15;;;;;;;;;;;;;;;19.87;39.87;101578.84;5029765;28;1941;-61
2020/12/20 07:15:47;;;;;;;;;;;;;;;19.87;39.85;101581.66;5037345;28;1902;-61
2020/12/20 07:18:45;;;;;;;;;;;;;;;19.86;39.87;101580.84;5037821;28;860;-61
2020/12/20 07:21:32;;;;;;;;;;;;;;;19.86;39.89;101577.22;5031631;28;1997;-62
2020/12/20 07:24:10;;;;;;;;;;;;;;;19.86;39.83;101585.63;5017703;28;849;-62
2020/12/20 07:26:36;;;;;;;;;;;;;;;19.87;39.86;101593.66;5017203;28;1389;-60
2020/12/20 07:29:03;;;;;;;;;;;;;;;19.86;39.84;101594.88;5017680;28;897;-62
2020/12/20 07:31:29;;;;;;;;;;;;;;;19.86;39.90;101589.25;5017731;28;1051;-61
2020/12/20 07:33:54;;;;;;;;;;;;;;;19.86;39.88;101582.81;5017735;28;1024;-61
2020/12/20 07:36:21;;;;;;;;;;;;;;;19.85;39.87;101584.84;5031398;28;2041;-63
2020/12/20 07:38:47;;;;;;;;;;;;;;;19.85;39.89;101587.63;5037363;28;812;-61
2020/12/20 07:41:14;;;;;;;;;;;;;;;19.85;39.74;101596.03;5036940;28;984;-61
2020/12/20 07:43:40;;;;;;;;;;;;;;;19.85;39.87;101589.66;5036630;28;884;-62
2020/12/20 07:46:12;;;;;;;;;;;;;;;19.85;39.83;101598.06;5036430;28;1271;-58
2020/12/20 07:48:37;;;;;;;;;;;;;;;19.84;40.03;101597.22;5037818;28;905;-60
2020/12/20 07:51:20;;;;;;;;;;;;;;;19.85;39.77;101598.06;5018394;28;2415;-61
2020/12/20 07:53:57;;;;;;;;;;;;;;;19.85;39.80;101589.66;5017219;28;1036;-61
2020/12/20 07:56:27;;;;;;;;;;;;;;;19.84;40.00;101597.22;5016360;28;2225;-62
2020/12/20 07:58:55;;;;;;;;;;;;;;;19.85;39.92;101600.84;5030050;28;1929;-62
2020/12/20 08:01:21;;;;;;;;;;;;;;;19.84;39.86;101600.03;5036438;28;980;-62
2020/12/20 08:03:46;;;;;;;;;;;;;;;19.84;40.01;101602.03;5034208;28;1998;-61
2020/12/20 08:06:13;;;;;;;;;;;;;;;19.84;39.91;101613.25;5026961;28;1994;-62
2020/12/20 08:08:41;;;;;;;;;;;;;;;19.84;39.86;101608.44;5017223;28;967;-62
2020/12/20 08:11:26;;;;;;;;;;;;;;;19.83;39.84;101622.84;5016488;28;906;-60
2020/12/20 08:14:09;;;;;;;;;;;;;;;19.83;39.97;101614.44;5016981;28;789;-60
2020/12/20 08:16:36;;;;;;;;;;;;;;;19.83;39.78;101614.44;5016461;28;1962;-61
2020/12/20 08:19:09;;;;;;;;;;;;;;;19.83;39.92;101603.22;5016785;28;980;-61
2020/12/20 08:22:02;;;;;;;;;;;;;;;19.82;39.92;101605.22;5016889;28;853;-61
2020/12/20 08:24:47;;;;;;;;;;;;;;;19.83;39.96;101608.81;5029992;28;2178;-62
2020/12/20 08:27:12;;;;;;;;;;;;;;;19.83;40.06;101608.81;5036334;28;1310;-62
2020/12/20 08:29:38;;;;;;;;;;;;;;;19.83;40.03;101606.03;5019838;28;2146;-62
2020/12/20 08:32:12;;;;;;;;;;;;;;;19.82;39.61;101607.22;5016686;28;951;-62
2020/12/20 08:34:37;;;;;;;;;;;;;;;19.83;39.90;101612.44;5015884;28;1040;-62
2020/12/20 08:37:08;;;;;;;;;;;;;;;19.82;39.84;101608.03;5016073;28;2045;-61
2020/12/20 08:39:34;;;;;;;;;;;;;;;19.82;39.89;101607.22;5017473;28;1951;-61
2020/12/20 08:42:04;;;;;;;;;;;;;;;19.82;39.83;101619.22;5017244;28;1941;-61
2020/12/20 08:44:30;;;;;;;;;;;;;;;19.82;39.95;101619.22;5016315;28;912;-62
2020/12/20 08:47:09;;;;;;;;;;;;;;;19.82;39.96;101612.84;5016437;28;1377;-62
2020/12/20 08:49:35;;;;;;;;;;;;;;;19.82;39.73;101616.44;5017313;28;2029;-59
2020/12/20 08:52:14;;;;;;;;;;;;;;;19.83;39.98;101608.81;5032370;28;1989;-60
2020/12/20 08:54:46;;;;;;;;;;;;;;;19.83;39.83;101614.44;5036068;28;843;-62
2020/12/20 08:57:12;;;;;;;;;;;;;;;19.83;39.89;101620.84;5035608;28;1890;-60
2020/12/20 08:59:38;;;;;;;;;;;;;;;19.82;39.96;101607.22;5035353;28;980;-62
2020/12/20 09:02:06;;;;;;;;;;;;;;;19.82;39.77;101605.22;5035531;28;855;-62
2020/12/20 09:04:33;;;;;;;;;;;;;;;19.83;40.03;101618.06;5033316;28;2065;-62
2020/12/20 09:07:28;;;;;;;;;;;;;;;19.83;39.88;101609.66;5035006;28;1274;-61
2020/12/20 09:10:07;;;;;;;;;;;;;;;19.82;39.91;101619.22;5021969;28;2178;-62
2020/12/20 09:12:33;;;;;;;;;;;;;;;19.82;40.07;101619.22;5015752;28;860;-62
2020/12/20 09:15:08;;;;;;;;;;;;;;;19.83;40.12;101620.84;5015622;28;799;-62
2020/12/20 09:17:39;;;;;;;;;;;;;;;19.84;40.14;101621.66;5016195;28;1336;-61
2020/12/20 09:20:07;;;;;;;;;;;;;;;19.83;40.21;101626.47;5015195;28;881;-62
2020/12/20 09:22:41;;;;;;;;;;;;;;;19.83;40.25;101634.88;5029707;28;2130;-61
2020/12/20 09:25:06;;;;;;;;;;;;;;;19.84;40.12;101632.84;5034634;28;860;-62
2020/12/20 09:27:33;;;;;;;;;;;;;;;19.84;40.03;101636.47;5035544;28;1360;-61
2020/12/20 09:29:59;;;;;;;;;;;;;;;19.84;40.26;101630.06;5029806;28;2043;-61
2020/12/20 09:32:25;;;;;;;;;;;;;;;19.84;40.39;101638.47;5019358;28;2057;-62
2020/12/20 09:34:51;;;;;;;;;;;;;;;19.84;40.33;101638.47;5035320;28;864;-62
2020/12/20 09:37:16;;;;;;;;;;;;;;;19.85;40.40;101628.88;5034920;28;1894;-61
2020/12/20 09:39:58;;;;;;;;;;;;;;;19.84;40.49;101636.47;5034984;28;885;-62
2020/12/20 09:42:24;;;;;;;;;;;;;;;19.86;40.43;101636.91;5034661;28;814;-62
2020/12/20 09:44:49;;;;;;;;;;;;;;;19.87;40.51;101624.47;5021065;28;2080;-62
2020/12/20 09:47:14;;;;;;;;;;;;;;;19.87;40.68;101627.28;5016488;28;1934;-62
2020/12/20 09:49:40;;;;;;;;;;;;;;;19.87;40.71;101629.28;5013325;28;2078;-62
2020/12/20 09:52:05;;;;;;;;;;;;;;;19.88;40.93;101628.06;5028588;28;1866;-60
2020/12/20 09:54:30;;;;;;;;;;;;;;;19.87;41.02;101635.69;5012233;28;1371;-60
2020/12/20 09:56:56;;;;;;;;;;;;;;;19.88;40.86;101625.28;5013980;28;1915;-59
2020/12/20 09:59:21;;;;;;;;;;;;;;;19.87;40.55;101638.50;5015520;28;2084;-59
2020/12/20 10:01:46;;;;;;;;;;;;;;;19.88;40.64;101634.50;5015695;28;895;-60
2020/12/20 10:04:12;;;;;;;;;;;;;;;19.86;40.42;101636.91;5016171;28;2044;-61
2020/12/20 10:06:37;;;;;;;;;;;;;;;19.86;40.40;101636.91;5014757;28;1341;-62
2020/12/20 10:09:02;;;;;;;;;;;;;;;19.88;40.33;101644.88;5019751;28;2009;-61
2020/12/20 10:11:28;;;;;;;;;;;;;;;19.89;40.44;101649.31;5035096;28;905;-62
2020/12/20 10:13:53;;;;;;;;;;;;;;;19.90;40.38;101642.53;5003739;28;2370;-62
2020/12/20 10:16:19;;;;;;;;;;;;;;;19.91;40.33;101641.31;5012967;28;2147;-61
2020/12/20 10:18:46;;;;;;;;;;;;;;;19.89;40.38;101650.09;5010121;28;3798;-60
2020/12/20 10:21:15;;;;;;;;;;;;;;;19.82;39.97;101646.47;5012395;28;3450;-61
2020/12/20 10:23:41;;;;;;;;;;;;;;;19.78;39.79;101634.41;5012650;28;3603;-59
2020/12/20 10:26:10;;;;;;;;;;;;;;;19.75;39.47;101638.78;5013354;28;1377;-58
2020/12/20 10:28:37;;;;;;;;;;;;;;;19.71;39.37;101635.13;5013142;28;2527;-59
2020/12/20 10:31:02;;;;;;;;;;;;;;;19.70;39.49;101641.91;5012604;28;2369;-58
2020/12/20 10:33:28;;;;;;;;;;;;;;;19.64;39.43;101632.25;5028869;28;1284;-67
2020/12/20 10:35:53;;;;;;;;;;;;;;;19.58;39.50;101628.22;5015487;28;1906;-67
2020/12/20 10:38:18;;;;;;;;;;;;;;;19.56;39.63;101633.41;5016734;28;1074;-67
2020/12/20 10:40:43;;;;;;;;;;;;;;;19.56;39.59;101636.22;5018755;28;994;-66
2020/12/20 10:43:09;;;;;;;;;;;;;;;19.45;39.56;101620.13;5017922;28;1945;-68
2020/12/20 10:45:34;;;;;;;;;;;;;;;19.76;39.29;101643.22;5015973;28;1965;-66
2020/12/20 10:47:59;;;;;;;;;;;;;;;19.92;38.99;101634.53;5016652;28;1693;-66
2020/12/20 10:50:25;;;;;;;;;;;;;;;20.23;38.55;101635.13;5016869;28;1564;-65
2020/12/20 10:52:50;;;;;;;;;;;;;;;20.57;37.65;101627.28;5016542;28;1754;-65
2020/12/20 10:55:15;;;;;;;;;;;;;;;20.51;37.71;101628.06;5016343;28;1890;-66
2020/12/20 10:57:40;;;;;;;;;;;;;;;21.05;36.60;101620.66;5016254;28;1420;-65
2020/12/20 11:00:06;;;;;;;;;;;;;;;21.31;36.09;101618.72;5017757;28;2207;-65
2020/12/20 11:02:32;;;;;;;;;;;;;;;20.99;36.57;101616.66;5016182;28;1622;-66
2020/12/20 11:04:57;;;;;;;;;;;;;;;20.57;37.61;101618.06;5011586;28;3293;-66
2020/12/20 11:07:23;;;;;;;;;;;;;;;20.50;38.00;101610.41;5016635;28;1480;-65
2020/12/20 11:09:51;;;;;;;;;;;;;;;20.49;38.17;101611.63;5016016;28;1302;-65
2020/12/20 11:12:16;;;;;;;;;;;;;;;20.22;38.78;101611.09;5016417;28;1285;-64
2020/12/20 11:14:41;;;;;;;;;;;;;;;20.05;39.20;101615.38;5016180;28;1333;-66
2020/12/20 11:17:07;;;;;;;;;;;;;;;19.97;39.40;101614.53;5015959;28;1906;-65
2020/12/20 11:19:32;;;;;;;;;;;;;;;19.92;39.40;101606.50;5015915;28;1362;-66
2020/12/20 11:21:57;;;;;;;;;;;;;;;19.90;39.64;101614.50;5012643;28;3380;-66
2020/12/20 11:24:24;;;;;;;;;;;;;;;19.90;39.58;101606.09;5014711;28;1351;-66
2020/12/20 11:26:50;;;;;;;;;;;;;;;19.89;39.95;101608.06;5015856;28;1484;-61
2020/12/20 11:29:17;;;;;;;;;;;;;;;19.90;39.98;101606.09;5017945;28;1282;-62
2020/12/20 11:31:44;;;;;;;;;;;;;;;19.90;40.12;101606.09;5000173;28;1450;-60
2020/12/20 11:34:10;;;;;;;;;;;;;;;19.89;40.09;101604.47;5017780;28;1873;-60
2020/12/20 11:36:36;;;;;;;;;;;;;;;19.89;40.04;101605.28;5018351;28;2220;-61
2020/12/20 11:39:03;;;;;;;;;;;;;;;19.88;40.25;101600.88;5014934;28;3237;-60
2020/12/20 11:41:31;;;;;;;;;;;;;;;19.89;40.18;101596.88;4999167;28;2024;-60
2020/12/20 11:43:57;;;;;;;;;;;;;;;19.89;40.18;101598.88;5016403;28;2395;-60
2020/12/20 11:46:23;;;;;;;;;;;;;;;19.90;40.38;101597.69;5017482;28;2137;-60
2020/12/20 11:48:50;;;;;;;;;;;;;;;19.90;40.38;101598.47;5032861;28;1988;-60
2020/12/20 11:51:17;;;;;;;;;;;;;;;19.90;40.38;101600.50;5018806;28;898;-60
2020/12/20 11:53:43;;;;;;;;;;;;;;;19.91;40.57;101594.47;5019679;28;966;-60
2020/12/20 11:56:10;;;;;;;;;;;;;;;19.92;40.62;101586.88;5018535;28;1941;-59
2020/12/20 11:58:38;;;;;;;;;;;;;;;19.92;40.41;101590.47;5010794;28;3147;-57
2020/12/20 12:01:04;;;;;;;;;;;;;;;19.94;40.63;101589.31;5015128;28;2227;-60
2020/12/20 12:03:29;;;;;;;;;;;;;;;19.94;40.44;101594.91;5017010;28;992;-57
2020/12/20 12:05:57;;;;;;;;;;;;;;;19.94;40.71;101590.09;5011775;28;2039;-60
2020/12/20 12:08:22;;;;;;;;;;;;;;;19.94;40.64;101589.31;5012851;28;2106;-57
2020/12/20 12:10:49;;;;;;;;;;;;;;;19.95;40.71;101590.91;5014874;28;2137;-59
2020/12/20 12:13:15;;;;;;;;;;;;;;;19.94;40.80;101587.28;5016473;28;2184;-60
2020/12/20 12:15:41;;;;;;;;;;;;;;;19.96;40.80;101595.31;5016115;28;1989;-59
2020/12/20 12:18:06;;;;;;;;;;;;;;;19.96;40.81;101600.91;5015835;28;1881;-59
2020/12/20 12:20:32;;;;;;;;;;;;;;;19.96;40.88;101598.91;5014328;28;2275;-59
2020/12/20 12:22:58;;;;;;;;;;;;;;;19.97;40.91;101594.09;5015603;28;2300;-59
2020/12/20 12:25:23;;;;;;;;;;;;;;;19.96;40.66;101598.91;5014646;28;2168;-57
2020/12/20 12:27:49;;;;;;;;;;;;;;;19.97;40.97;101605.31;5016030;28;1345;-59
2020/12/20 12:30:14;;;;;;;;;;;;;;;19.97;41.01;101597.72;5015105;28;1947;-58
2020/12/20 12:32:40;;;;;;;;;;;;;;;19.98;40.88;101599.31;5016052;28;992;-60
2020/12/20 12:35:06;;;;;;;;;;;;;;;19.98;41.06;101596.50;5015404;28;2394;-60
2020/12/20 12:37:32;;;;;;;;;;;;;;;19.99;41.05;101597.34;5009697;28;2156;-59
2020/12/20 12:39:57;;;;;;;;;;;;;;;19.98;40.83;101598.53;5006517;28;2274;-58
2020/12/20 12:42:23;;;;;;;;;;;;;;;19.97;40.49;101596.91;5008884;28;2031;-59
2020/12/20 12:44:49;;;;;;;;;;;;;;;19.92;40.57;101595.28;5011107;28;2276;-60
2020/12/20 12:47:14;;;;;;;;;;;;;;;19.92;40.63;101596.09;5014852;28;2550;-59
2020/12/20 12:49:40;;;;;;;;;;;;;;;19.94;40.55;101598.50;5015180;28;2286;-58
2020/12/20 12:52:05;;;;;;;;;;;;;;;19.94;40.55;101598.50;5015133;28;2356;-59
2020/12/20 12:54:30;;;;;;;;;;;;;;;19.95;40.63;101599.28;5015606;28;840;-58